createdAt,value
2018-05-03T00:00:31.248Z,50
2018-05-03T00:01:11.747Z,49.91
2018-05-03T00:01:52.244Z,49.91
2018-05-03T00:02:32.729Z,49.91
2018-05-03T00:03:13.254Z,49.91
2018-05-03T00:03:53.712Z,50.1
2018-05-03T00:04:34.198Z,50.1
2018-05-03T00:05:14.694Z,49.91
2018-05-03T00:05:55.144Z,50.1
2018-05-03T00:06:35.652Z,49.91
2018-05-03T00:07:16.154Z,49.81
2018-05-03T00:07:57.373Z,49.91
2018-05-03T00:08:37.956Z,50
2018-05-03T00:09:18.429Z,49.91
2018-05-03T00:09:58.993Z,49.91
2018-05-03T00:10:39.414Z,49.91
2018-05-03T00:11:19.885Z,50
2018-05-03T00:12:00.391Z,50
2018-05-03T00:12:40.873Z,49.62
2018-05-03T00:13:21.348Z,49.91
2018-05-03T00:14:01.841Z,50.2
2018-05-03T00:14:42.347Z,50.38
2018-05-03T00:15:22.852Z,50.29
2018-05-03T00:16:03.332Z,50.58
2018-05-03T00:16:43.836Z,50.67
2018-05-03T00:17:24.873Z,50.67
2018-05-03T00:18:05.423Z,50.58
2018-05-03T00:18:45.924Z,50.58
2018-05-03T00:19:26.429Z,50.48
2018-05-03T00:20:07.774Z,50.26
2018-05-03T00:20:48.274Z,50.38
2018-05-03T00:21:28.785Z,50.2
2018-05-03T00:22:09.286Z,50.17
2018-05-03T00:22:50.723Z,50.48
2018-05-03T00:23:31.212Z,50.26
2018-05-03T00:24:11.743Z,50.46
2018-05-03T00:24:52.228Z,50.26
2018-05-03T00:25:33.873Z,50.46
2018-05-03T00:26:13.473Z,50.46
2018-05-03T00:26:53.995Z,50.46
2018-05-03T00:27:34.484Z,50.56
2018-05-03T00:28:14.955Z,50.36
2018-05-03T00:28:55.483Z,50.46
2018-05-03T00:29:35.952Z,50.46
2018-05-03T00:30:16.421Z,50.36
2018-05-03T00:30:56.945Z,50.26
2018-05-03T00:31:37.404Z,50.36
2018-05-03T00:32:17.935Z,50.36
2018-05-03T00:32:58.445Z,50.36
2018-05-03T00:33:38.894Z,50.46
2018-05-03T00:34:19.382Z,50.26
2018-05-03T00:34:59.881Z,50.26
2018-05-03T00:35:40.387Z,50.26
2018-05-03T00:36:20.882Z,50.26
2018-05-03T00:37:01.943Z,50.26
2018-05-03T00:37:41.871Z,50.26
2018-05-03T00:38:22.348Z,50.26
2018-05-03T00:39:02.839Z,50.46
2018-05-03T00:39:43.338Z,50.36
2018-05-03T00:40:23.829Z,50.36
2018-05-03T00:41:04.344Z,50.26
2018-05-03T00:41:44.829Z,50.07
2018-05-03T00:42:25.318Z,50.36
2018-05-03T00:43:05.837Z,50.36
2018-05-03T00:43:46.307Z,50.36
2018-05-03T00:44:27.377Z,50.36
2018-05-03T00:45:07.275Z,50.36
2018-05-03T00:45:47.766Z,50.36
2018-05-03T00:46:28.265Z,50.46
2018-05-03T00:47:08.767Z,50.46
2018-05-03T00:47:49.307Z,50.36
2018-05-03T00:48:29.749Z,50.36
2018-05-03T00:49:10.275Z,50.36
2018-05-03T00:49:50.755Z,50.46
2018-05-03T00:50:31.285Z,50.46
2018-05-03T00:51:11.765Z,50.36
2018-05-03T00:51:52.230Z,50.46
2018-05-03T00:52:32.740Z,50.46
2018-05-03T00:53:13.217Z,50.56
2018-05-03T00:53:53.726Z,50.56
2018-05-03T00:54:34.185Z,50.36
2018-05-03T00:55:14.716Z,50.36
2018-05-03T00:55:55.205Z,50.36
2018-05-03T00:56:35.701Z,50.46
2018-05-03T00:57:16.186Z,50.46
2018-05-03T00:57:56.639Z,50.46
2018-05-03T00:58:37.528Z,50.36
2018-05-03T00:59:18.028Z,50.26
2018-05-03T00:59:58.513Z,50.36
2018-05-03T01:00:39.015Z,50.46
2018-05-03T01:01:19.521Z,50.36
2018-05-03T01:02:00.026Z,50.36
2018-05-03T01:02:40.525Z,50.26
2018-05-03T01:03:21.007Z,50.26
2018-05-03T01:04:01.508Z,50.26
2018-05-03T01:04:41.994Z,50.36
2018-05-03T01:05:22.495Z,50.07
2018-05-03T01:06:02.987Z,50.46
2018-05-03T01:06:43.505Z,50.26
2018-05-03T01:07:24.880Z,50.46
2018-05-03T01:08:04.485Z,50.26
2018-05-03T01:08:44.993Z,50.46
2018-05-03T01:09:25.484Z,50.36
2018-05-03T01:10:05.980Z,50.56
2018-05-03T01:10:46.494Z,50.34
2018-05-03T01:11:27.078Z,50.52
2018-05-03T01:12:07.512Z,50.43
2018-05-03T01:12:48.883Z,50.62
2018-05-03T01:13:28.470Z,50.56
2018-05-03T01:14:08.934Z,50.65
2018-05-03T01:14:49.468Z,50.52
2018-05-03T01:15:29.939Z,50.65
2018-05-03T01:16:10.452Z,50.65
2018-05-03T01:16:50.941Z,50.52
2018-05-03T01:17:31.466Z,50.36
2018-05-03T01:18:11.954Z,50.34
2018-05-03T01:18:52.454Z,50.34
2018-05-03T01:19:32.908Z,50.62
2018-05-03T01:20:13.388Z,50.52
2018-05-03T01:20:53.868Z,50.62
2018-05-03T01:21:34.390Z,50.52
2018-05-03T01:22:14.866Z,50.52
2018-05-03T01:22:55.371Z,50.52
2018-05-03T01:23:35.830Z,50.52
2018-05-03T01:24:16.324Z,50.43
2018-05-03T01:24:56.821Z,50.62
2018-05-03T01:25:37.320Z,50.52
2018-05-03T01:26:17.782Z,50.52
2018-05-03T01:26:58.327Z,50.52
2018-05-03T01:27:38.763Z,50.52
2018-05-03T01:28:19.300Z,50.52
2018-05-03T01:28:59.767Z,50.34
2018-05-03T01:29:40.262Z,50.62
2018-05-03T01:30:21.385Z,50.52
2018-05-03T01:31:01.238Z,50.34
2018-05-03T01:31:41.759Z,50.34
2018-05-03T01:32:22.255Z,50.34
2018-05-03T01:33:02.731Z,50.62
2018-05-03T01:33:43.252Z,50.72
2018-05-03T01:34:23.721Z,50.62
2018-05-03T01:35:04.207Z,50.72
2018-05-03T01:35:45.887Z,50.72
2018-05-03T01:36:25.799Z,50.81
2018-05-03T01:37:06.284Z,50.81
2018-05-03T01:37:47.729Z,50.72
2018-05-03T01:38:28.236Z,50.91
2018-05-03T01:39:08.718Z,50.72
2018-05-03T01:39:49.255Z,50.81
2018-05-03T01:40:29.739Z,50.81
2018-05-03T01:41:10.226Z,50.91
2018-05-03T01:41:50.707Z,50.91
2018-05-03T01:42:31.210Z,50.91
2018-05-03T01:43:11.720Z,50.72
2018-05-03T01:43:52.215Z,50.7
2018-05-03T01:44:32.743Z,50.7
2018-05-03T01:45:13.889Z,50.7
2018-05-03T01:45:53.816Z,50.79
2018-05-03T01:46:34.349Z,50.79
2018-05-03T01:47:14.822Z,50.7
2018-05-03T01:47:55.291Z,50.6
2018-05-03T01:48:35.790Z,50.41
2018-05-03T01:49:16.282Z,50.79
2018-05-03T01:49:56.803Z,50.79
2018-05-03T01:50:37.251Z,50.89
2018-05-03T01:51:17.776Z,50.5
2018-05-03T01:51:58.269Z,50.79
2018-05-03T01:52:38.734Z,50.5
2018-05-03T01:53:19.250Z,51.07
2018-05-03T01:53:59.746Z,50.5
2018-05-03T01:54:40.252Z,50.98
2018-05-03T01:55:20.713Z,50.98
2018-05-03T01:56:01.210Z,50.89
2018-05-03T01:56:41.713Z,51.07
2018-05-03T01:57:22.191Z,51.07
2018-05-03T01:58:02.697Z,51.07
2018-05-03T01:58:43.197Z,51.07
2018-05-03T01:59:23.731Z,51.17
2018-05-03T02:00:04.190Z,50.98
2018-05-03T02:00:44.697Z,51.17
2018-05-03T02:01:25.177Z,50.79
2018-05-03T02:02:05.684Z,50.79
2018-05-03T02:02:46.183Z,50.79
2018-05-03T02:03:26.691Z,51.17
2018-05-03T02:04:07.173Z,50.98
2018-05-03T02:04:47.700Z,51.17
2018-05-03T02:05:28.203Z,51.27
2018-05-03T02:06:08.699Z,51.27
2018-05-03T02:06:49.182Z,51.27
2018-05-03T02:07:29.687Z,51.17
2018-05-03T02:08:10.180Z,51.17
2018-05-03T02:08:50.674Z,51.27
2018-05-03T02:09:31.161Z,51.27
2018-05-03T02:10:11.667Z,51.27
2018-05-03T02:10:52.157Z,50.89
2018-05-03T02:11:32.685Z,50.98
2018-05-03T02:12:13.161Z,51.17
2018-05-03T02:12:53.652Z,51.07
2018-05-03T02:13:34.138Z,50.89
2018-05-03T02:14:14.627Z,50.89
2018-05-03T02:14:55.143Z,50.79
2018-05-03T02:15:35.621Z,50.79
2018-05-03T02:16:16.136Z,50.98
2018-05-03T02:16:56.684Z,51.07
2018-05-03T02:17:37.119Z,50.79
2018-05-03T02:18:17.618Z,50.79
2018-05-03T02:18:58.138Z,50.79
2018-05-03T02:19:38.645Z,50.98
2018-05-03T02:20:19.141Z,50.5
2018-05-03T02:20:59.627Z,50.7
2018-05-03T02:21:40.113Z,50.5
2018-05-03T02:22:20.611Z,50.6
2018-05-03T02:23:01.133Z,50.5
2018-05-03T02:23:41.607Z,50.41
2018-05-03T02:24:22.099Z,50.6
2018-05-03T02:25:02.591Z,50.6
2018-05-03T02:25:43.068Z,50.6
2018-05-03T02:26:23.617Z,50.7
2018-05-03T02:27:04.080Z,50.79
2018-05-03T02:27:44.570Z,50.5
2018-05-03T02:28:25.064Z,50.7
2018-05-03T02:29:05.565Z,50.6
2018-05-03T02:29:46.062Z,50.5
2018-05-03T02:30:26.517Z,50.5
2018-05-03T02:31:07.043Z,50.7
2018-05-03T02:31:47.521Z,50.89
2018-05-03T02:32:28.046Z,50.98
2018-05-03T02:33:08.526Z,50.5
2018-05-03T02:33:49.059Z,50.7
2018-05-03T02:34:29.556Z,50.41
2018-05-03T02:35:10.034Z,50.79
2018-05-03T02:35:50.524Z,50.7
2018-05-03T02:36:31.017Z,50.7
2018-05-03T02:37:11.530Z,50.6
2018-05-03T02:37:52.014Z,50.7
2018-05-03T02:38:33.102Z,50.7
2018-05-03T02:39:13.554Z,50.7
2018-05-03T02:39:54.046Z,50.62
2018-05-03T02:40:34.545Z,50.72
2018-05-03T02:41:15.041Z,50.72
2018-05-03T02:41:55.559Z,50.72
2018-05-03T02:42:36.042Z,50.62
2018-05-03T02:43:16.524Z,50.72
2018-05-03T02:43:57.077Z,50.62
2018-05-03T02:44:38.396Z,50.91
2018-05-03T02:45:18.009Z,50.43
2018-05-03T02:45:58.538Z,50.91
2018-05-03T02:46:39.002Z,50.91
2018-05-03T02:47:19.496Z,50.72
2018-05-03T02:48:00.017Z,50.72
2018-05-03T02:48:40.484Z,50.91
2018-05-03T02:49:21.010Z,50.72
2018-05-03T02:50:01.497Z,50.72
2018-05-03T02:50:41.974Z,50.72
2018-05-03T02:51:23.415Z,50.81
2018-05-03T02:52:02.974Z,50.81
2018-05-03T02:52:43.501Z,50.72
2018-05-03T02:53:23.986Z,50.81
2018-05-03T02:54:04.507Z,50.72
2018-05-03T02:54:45.151Z,50.81
2018-05-03T02:55:25.535Z,50.72
2018-05-03T02:56:06.025Z,50.72
2018-05-03T02:56:46.509Z,50.81
2018-05-03T02:57:27.041Z,50.72
2018-05-03T02:58:07.776Z,50.52
2018-05-03T02:58:48.301Z,50.91
2018-05-03T02:59:28.791Z,50.91
2018-05-03T03:00:10.063Z,50.72
2018-05-03T03:00:50.561Z,50.62
2018-05-03T03:01:31.061Z,50.52
2018-05-03T03:02:11.589Z,50.72
2018-05-03T03:02:52.115Z,50.72
2018-05-03T03:03:32.641Z,50.72
2018-05-03T03:04:13.172Z,50.72
2018-05-03T03:04:53.697Z,50.72
2018-05-03T03:05:34.233Z,50.91
2018-05-03T03:06:14.755Z,51.01
2018-05-03T03:06:55.288Z,50.72
2018-05-03T03:07:35.801Z,50.91
2018-05-03T03:08:16.331Z,50.91
2018-05-03T03:08:56.855Z,50.62
2018-05-03T03:09:37.467Z,50.72
2018-05-03T03:10:17.908Z,50.91
2018-05-03T03:10:58.439Z,50.81
2018-05-03T03:11:38.971Z,50.52
2018-05-03T03:12:20.035Z,50.91
2018-05-03T03:13:00.552Z,50.72
2018-05-03T03:13:41.084Z,50.52
2018-05-03T03:14:21.606Z,50.91
2018-05-03T03:15:02.129Z,50.91
2018-05-03T03:15:42.648Z,50.62
2018-05-03T03:16:23.183Z,50.91
2018-05-03T03:17:03.705Z,50.91
2018-05-03T03:17:44.241Z,50.91
2018-05-03T03:18:24.787Z,50.91
2018-05-03T03:19:05.304Z,50.62
2018-05-03T03:19:45.825Z,51.01
2018-05-03T03:20:26.267Z,50.62
2018-05-03T03:21:07.401Z,50.72
2018-05-03T03:21:47.288Z,50.72
2018-05-03T03:22:28.067Z,50.72
2018-05-03T03:23:08.727Z,50.62
2018-05-03T03:23:49.228Z,50.72
2018-05-03T03:24:29.753Z,50.52
2018-05-03T03:25:10.280Z,50.72
2018-05-03T03:25:50.806Z,50.52
2018-05-03T03:26:31.332Z,50.72
2018-05-03T03:27:11.826Z,50.81
2018-05-03T03:27:52.352Z,50.81
2018-05-03T03:28:32.893Z,50.52
2018-05-03T03:29:13.495Z,50.62
2018-05-03T03:29:53.937Z,50.52
2018-05-03T03:30:34.769Z,50.81
2018-05-03T03:31:15.280Z,50.52
2018-05-03T03:31:56.254Z,51.2
2018-05-03T03:32:36.765Z,51.1
2018-05-03T03:33:17.321Z,51.01
2018-05-03T03:33:57.880Z,51.1
2018-05-03T03:34:39.283Z,51.1
2018-05-03T03:35:19.112Z,51.01
2018-05-03T03:35:59.772Z,50.91
2018-05-03T03:36:40.315Z,51.01
2018-05-03T03:37:20.824Z,50.81
2018-05-03T03:38:01.295Z,51.1
2018-05-03T03:38:41.837Z,50.72
2018-05-03T03:39:22.295Z,50.52
2018-05-03T03:40:02.758Z,50.52
2018-05-03T03:40:43.272Z,50.52
2018-05-03T03:41:23.754Z,50.81
2018-05-03T03:42:04.316Z,50.81
2018-05-03T03:42:44.794Z,50.62
2018-05-03T03:43:25.312Z,50.72
2018-05-03T03:44:05.902Z,50.52
2018-05-03T03:44:46.357Z,50.52
2018-05-03T03:45:26.903Z,51.01
2018-05-03T03:46:07.348Z,51.01
2018-05-03T03:46:47.838Z,50.52
2018-05-03T03:47:28.908Z,51.01
2018-05-03T03:48:08.834Z,51.1
2018-05-03T03:48:51.252Z,50.52
2018-05-03T03:49:33.452Z,51.2
2018-05-03T03:50:42.738Z,51.01
2018-05-03T03:51:23.213Z,51.01
2018-05-03T03:52:03.701Z,51.1
2018-05-03T03:52:44.186Z,51.01
2018-05-03T03:53:24.705Z,50.91
2018-05-03T03:54:05.908Z,51.1
2018-05-03T03:54:45.766Z,51.1
2018-05-03T03:55:26.219Z,51.01
2018-05-03T03:56:06.757Z,51.01
2018-05-03T03:56:47.763Z,50.52
2018-05-03T03:57:28.304Z,51.01
2018-05-03T03:58:09.033Z,50.52
2018-05-03T03:58:49.562Z,51.1
2018-05-03T03:59:30.069Z,50.52
2018-05-03T04:00:10.578Z,51.1
2018-05-03T04:00:51.131Z,50.81
2018-05-03T04:01:31.622Z,51.2
2018-05-03T04:02:12.151Z,51.2
2018-05-03T04:02:52.681Z,51.29
2018-05-03T04:03:33.203Z,51.2
2018-05-03T04:04:13.722Z,51.2
2018-05-03T04:04:54.243Z,51.29
2018-05-03T04:05:34.803Z,51.39
2018-05-03T04:06:15.325Z,51.29
2018-05-03T04:06:55.858Z,51.39
2018-05-03T04:07:36.371Z,51.58
2018-05-03T04:08:16.896Z,51.39
2018-05-03T04:08:57.427Z,51.29
2018-05-03T04:09:37.959Z,51.29
2018-05-03T04:10:18.492Z,51.58
2018-05-03T04:10:59.022Z,51.29
2018-05-03T04:11:39.540Z,51.58
2018-05-03T04:12:20.066Z,51.48
2018-05-03T04:13:00.600Z,51.29
2018-05-03T04:13:41.146Z,51.39
2018-05-03T04:14:21.666Z,51.2
2018-05-03T04:15:02.187Z,51.39
2018-05-03T04:15:42.695Z,51.48
2018-05-03T04:16:23.225Z,51.48
2018-05-03T04:17:03.750Z,51.29
2018-05-03T04:17:44.274Z,51.2
2018-05-03T04:18:24.801Z,51.1
2018-05-03T04:19:05.330Z,51.39
2018-05-03T04:19:45.859Z,51.2
2018-05-03T04:20:26.375Z,51.29
2018-05-03T04:21:06.906Z,51.39
2018-05-03T04:21:47.429Z,51.29
2018-05-03T04:22:27.996Z,51.39
2018-05-03T04:23:08.481Z,51.29
2018-05-03T04:23:49.005Z,51.2
2018-05-03T04:24:29.537Z,51.1
2018-05-03T04:25:10.657Z,51.1
2018-05-03T04:25:51.173Z,51.01
2018-05-03T04:26:31.704Z,51.01
2018-05-03T04:27:12.225Z,50.43
2018-05-03T04:27:52.761Z,50.62
2018-05-03T04:28:33.285Z,50.72
2018-05-03T04:29:13.815Z,50.72
2018-05-03T04:29:54.341Z,50.62
2018-05-03T04:30:34.874Z,50.62
2018-05-03T04:31:15.404Z,50.52
2018-05-03T04:31:55.940Z,50.72
2018-05-03T04:32:36.464Z,50.72
2018-05-03T04:33:16.990Z,50.91
2018-05-03T04:33:57.526Z,50.62
2018-05-03T04:34:38.131Z,50.72
2018-05-03T04:35:18.578Z,50.72
2018-05-03T04:35:59.113Z,50.72
2018-05-03T04:36:39.644Z,50.72
2018-05-03T04:37:20.165Z,50.72
2018-05-03T04:38:00.692Z,50.62
2018-05-03T04:38:41.217Z,50.62
2018-05-03T04:39:21.745Z,50.72
2018-05-03T04:40:02.277Z,50.91
2018-05-03T04:40:42.802Z,50.91
2018-05-03T04:41:23.329Z,50.62
2018-05-03T04:42:03.845Z,50.72
2018-05-03T04:42:44.371Z,50.81
2018-05-03T04:43:24.892Z,50.74
2018-05-03T04:44:05.425Z,50.81
2018-05-03T04:44:45.957Z,50.56
2018-05-03T04:45:26.512Z,50.72
2018-05-03T04:46:07.034Z,50.34
2018-05-03T04:46:48.426Z,50.62
2018-05-03T04:47:28.976Z,50.62
2018-05-03T04:48:10.416Z,50.56
2018-05-03T04:48:50.020Z,50.36
2018-05-03T04:49:30.548Z,50.84
2018-05-03T04:50:11.074Z,50.74
2018-05-03T04:50:51.605Z,50.36
2018-05-03T04:51:32.135Z,50.46
2018-05-03T04:52:12.664Z,50.46
2018-05-03T04:52:53.190Z,50.36
2018-05-03T04:53:33.715Z,50.36
2018-05-03T04:54:14.267Z,50.26
2018-05-03T04:54:54.776Z,50.46
2018-05-03T04:55:35.297Z,50.65
2018-05-03T04:56:15.824Z,50.65
2018-05-03T04:56:56.357Z,50.46
2018-05-03T04:57:36.907Z,50.56
2018-05-03T04:58:18.184Z,50.17
2018-05-03T04:58:58.688Z,49.79
2018-05-03T04:59:39.184Z,49.79
2018-05-03T05:00:21.500Z,49.88
2018-05-03T05:01:01.029Z,50
2018-05-03T05:01:41.562Z,49.6
2018-05-03T05:02:22.088Z,49.52
2018-05-03T05:03:02.609Z,50.1
2018-05-03T05:03:43.137Z,50.2
2018-05-03T05:04:24.423Z,49.81
2018-05-03T05:05:04.609Z,49.62
2018-05-03T05:05:45.133Z,49.62
2018-05-03T05:06:25.662Z,49.62
2018-05-03T05:07:06.189Z,49.43
2018-05-03T05:07:46.718Z,49.71
2018-05-03T05:08:27.241Z,49.62
2018-05-03T05:09:08.750Z,49.33
2018-05-03T05:09:49.273Z,49.24
2018-05-03T05:10:29.880Z,49.52
2018-05-03T05:11:10.325Z,49.52
2018-05-03T05:11:50.855Z,49.43
2018-05-03T05:12:31.384Z,49.62
2018-05-03T05:13:11.911Z,49.52
2018-05-03T05:13:52.437Z,49.43
2018-05-03T05:14:32.967Z,49.33
2018-05-03T05:15:13.495Z,49.43
2018-05-03T05:15:54.027Z,49.33
2018-05-03T05:16:34.558Z,49.36
2018-05-03T05:17:15.078Z,49.26
2018-05-03T05:17:55.622Z,49.26
2018-05-03T05:18:36.115Z,49.36
2018-05-03T05:19:16.640Z,49.45
2018-05-03T05:19:57.175Z,49.36
2018-05-03T05:20:37.699Z,49.07
2018-05-03T05:21:18.230Z,49.07
2018-05-03T05:21:58.758Z,49.07
2018-05-03T05:22:39.280Z,49.16
2018-05-03T05:23:19.812Z,49.16
2018-05-03T05:24:00.336Z,49.55
2018-05-03T05:24:40.865Z,49.07
2018-05-03T05:25:21.385Z,48.97
2018-05-03T05:26:01.916Z,48.71
2018-05-03T05:26:42.445Z,48.52
2018-05-03T05:27:22.970Z,48.71
2018-05-03T05:28:03.495Z,48.71
2018-05-03T05:28:44.033Z,48.8
2018-05-03T05:29:24.565Z,48.71
2018-05-03T05:30:05.097Z,48.8
2018-05-03T05:30:45.710Z,48.9
2018-05-03T05:31:26.153Z,48.71
2018-05-03T05:32:06.678Z,49.19
2018-05-03T05:32:47.208Z,49.19
2018-05-03T05:33:28.430Z,49.38
2018-05-03T05:34:08.241Z,49.19
2018-05-03T05:34:48.768Z,49.29
2018-05-03T05:35:29.295Z,49.19
2018-05-03T05:36:09.826Z,49.19
2018-05-03T05:36:50.353Z,49
2018-05-03T05:37:30.882Z,49.1
2018-05-03T05:38:11.395Z,49.38
2018-05-03T05:38:52.137Z,49.48
2018-05-03T05:39:32.452Z,49.19
2018-05-03T05:40:13.925Z,49.38
2018-05-03T05:40:53.502Z,49.38
2018-05-03T05:41:34.024Z,49.29
2018-05-03T05:42:14.550Z,49.29
2018-05-03T05:42:55.083Z,49.19
2018-05-03T05:43:35.612Z,49.29
2018-05-03T05:44:16.188Z,49.38
2018-05-03T05:44:56.671Z,49.29
2018-05-03T05:45:37.175Z,49.29
2018-05-03T05:46:17.688Z,49.38
2018-05-03T05:46:58.201Z,49.29
2018-05-03T05:47:38.693Z,49.48
2018-05-03T05:48:19.257Z,49
2018-05-03T05:48:59.715Z,49
2018-05-03T05:49:40.213Z,49.19
2018-05-03T05:50:20.777Z,49.19
2018-05-03T05:51:01.308Z,49.19
2018-05-03T05:51:41.723Z,49.41
2018-05-03T05:52:22.187Z,49.41
2018-05-03T05:53:02.654Z,49.41
2018-05-03T05:53:43.145Z,49.1
2018-05-03T05:54:23.638Z,49.41
2018-05-03T05:55:04.147Z,49.21
2018-05-03T05:55:44.596Z,49.12
2018-05-03T05:56:25.105Z,48.64
2018-05-03T05:57:05.637Z,48.93
2018-05-03T05:57:46.122Z,48.64
2018-05-03T05:58:27.429Z,49.02
2018-05-03T05:59:07.096Z,48.54
2018-05-03T05:59:47.608Z,48.44
2018-05-03T06:00:28.119Z,47.99
2018-05-03T06:01:08.613Z,48.38
2018-05-03T06:01:49.102Z,48.38
2018-05-03T06:02:29.626Z,48.09
2018-05-03T06:03:10.072Z,47.61
2018-05-03T06:03:50.568Z,47.8
2018-05-03T06:04:31.096Z,47.63
2018-05-03T06:05:11.580Z,47.71
2018-05-03T06:05:52.106Z,47.63
2018-05-03T06:06:32.610Z,47.72
2018-05-03T06:07:13.084Z,47.53
2018-05-03T06:07:53.567Z,47.72
2018-05-03T06:08:34.091Z,47.72
2018-05-03T06:09:14.623Z,47.92
2018-05-03T06:09:56.115Z,47.92
2018-05-03T06:10:36.556Z,47.92
2018-05-03T06:11:17.053Z,48.02
2018-05-03T06:11:57.549Z,48.02
2018-05-03T06:12:38.076Z,47.82
2018-05-03T06:13:18.572Z,47.92
2018-05-03T06:13:59.084Z,47.82
2018-05-03T06:14:39.593Z,47.92
2018-05-03T06:15:21.096Z,48.11
2018-05-03T06:16:02.229Z,48.49
2018-05-03T06:16:42.706Z,48.69
2018-05-03T06:17:23.219Z,48.59
2018-05-03T06:18:03.712Z,48.3
2018-05-03T06:18:44.247Z,48.85
2018-05-03T06:19:25.436Z,48.47
2018-05-03T06:20:05.259Z,48.88
2018-05-03T06:20:45.757Z,48.88
2018-05-03T06:21:26.277Z,48.66
2018-05-03T06:22:06.807Z,48.95
2018-05-03T06:22:47.312Z,48.95
2018-05-03T06:23:27.803Z,48.95
2018-05-03T06:24:08.292Z,48.95
2018-05-03T06:24:48.778Z,48.76
2018-05-03T06:25:29.264Z,48.76
2018-05-03T06:26:09.801Z,48.47
2018-05-03T06:26:50.935Z,48.57
2018-05-03T06:27:30.803Z,48.76
2018-05-03T06:28:11.294Z,48.85
2018-05-03T06:28:51.776Z,48.76
2018-05-03T06:29:32.276Z,48.95
2018-05-03T06:30:12.792Z,48.76
2018-05-03T06:30:53.290Z,48.76
2018-05-03T06:31:33.792Z,48.76
2018-05-03T06:32:14.304Z,48.95
2018-05-03T06:32:54.820Z,48.76
2018-05-03T06:33:35.310Z,48.76
2018-05-03T06:34:15.804Z,48.95
2018-05-03T06:34:56.325Z,49.05
2018-05-03T06:35:36.797Z,49.05
2018-05-03T06:36:17.942Z,49.05
2018-05-03T06:36:57.796Z,48.57
2018-05-03T06:37:38.330Z,48.95
2018-05-03T06:38:18.831Z,48.95
2018-05-03T06:39:00.438Z,49.05
2018-05-03T06:39:39.872Z,48.95
2018-05-03T06:40:20.362Z,48.76
2018-05-03T06:41:00.869Z,48.76
2018-05-03T06:41:41.385Z,48.95
2018-05-03T06:42:21.917Z,48.76
2018-05-03T06:43:02.444Z,49.15
2018-05-03T06:43:42.972Z,49.24
2018-05-03T06:44:23.507Z,49.33
2018-05-03T06:45:04.030Z,49.24
2018-05-03T06:45:44.560Z,49.24
2018-05-03T06:46:25.949Z,49.33
2018-05-03T06:47:06.492Z,48.76
2018-05-03T06:47:47.019Z,48.76
2018-05-03T06:48:27.549Z,48.66
2018-05-03T06:49:08.079Z,49.15
2018-05-03T06:49:48.611Z,48.66
2018-05-03T06:50:29.138Z,48.66
2018-05-03T06:51:10.941Z,49.05
2018-05-03T06:51:50.173Z,49.05
2018-05-03T06:52:30.701Z,48.85
2018-05-03T06:53:11.230Z,48.57
2018-05-03T06:53:51.757Z,48.95
2018-05-03T06:54:32.289Z,49.05
2018-05-03T06:55:12.824Z,48.88
2018-05-03T06:55:53.942Z,48.59
2018-05-03T06:56:33.868Z,48.4
2018-05-03T06:57:14.388Z,48.49
2018-05-03T06:57:54.923Z,47.82
2018-05-03T06:58:35.699Z,47.66
2018-05-03T06:59:16.219Z,47.36
2018-05-03T06:59:56.747Z,46.89
2018-05-03T07:00:37.943Z,47.1
2018-05-03T07:01:17.771Z,46.72
2018-05-03T07:01:58.290Z,46.43
2018-05-03T07:02:38.818Z,46.26
2018-05-03T07:03:19.327Z,46.26
2018-05-03T07:03:59.864Z,45.68
2018-05-03T07:04:40.396Z,45.42
2018-05-03T07:05:20.923Z,45.22
2018-05-03T07:06:01.453Z,45.61
2018-05-03T07:06:41.980Z,45.51
2018-05-03T07:07:22.514Z,45.05
2018-05-03T07:08:03.580Z,45.44
2018-05-03T07:08:44.107Z,45.07
2018-05-03T07:09:24.642Z,44.98
2018-05-03T07:10:05.163Z,44.79
2018-05-03T07:10:45.700Z,44.62
2018-05-03T07:11:26.218Z,44.15
2018-05-03T07:12:06.750Z,43.98
2018-05-03T07:12:47.280Z,42.93
2018-05-03T07:13:27.802Z,42.36
2018-05-03T07:14:08.324Z,42
2018-05-03T07:14:48.880Z,41.63
2018-05-03T07:15:29.400Z,39.95
2018-05-03T07:16:09.940Z,39.11
2018-05-03T07:16:50.946Z,39.12
2018-05-03T07:17:30.983Z,38.35
2018-05-03T07:18:11.516Z,38.29
2018-05-03T07:18:52.052Z,37.73
2018-05-03T07:19:32.583Z,38.04
2018-05-03T07:20:13.109Z,37.66
2018-05-03T07:20:53.639Z,37.3
2018-05-03T07:21:34.172Z,36.36
2018-05-03T07:22:14.706Z,36.08
2018-05-03T07:22:55.813Z,35.6
2018-05-03T07:23:36.351Z,35.81
2018-05-03T07:24:16.871Z,36
2018-05-03T07:24:57.400Z,36.02
2018-05-03T07:25:37.935Z,36.04
2018-05-03T07:26:18.456Z,35.55
2018-05-03T07:26:59.183Z,35.86
2018-05-03T07:27:39.712Z,35.77
2018-05-03T07:28:20.235Z,36.16
2018-05-03T07:29:00.766Z,35.67
2018-05-03T07:29:41.285Z,36.06
2018-05-03T07:30:22.381Z,36.25
2018-05-03T07:31:02.911Z,36.35
2018-05-03T07:31:43.437Z,36.55
2018-05-03T07:32:23.974Z,36.74
2018-05-03T07:33:04.528Z,36.84
2018-05-03T07:33:45.955Z,36.94
2018-05-03T07:34:25.575Z,37.5
2018-05-03T07:35:06.108Z,37.5
2018-05-03T07:35:46.647Z,37.79
2018-05-03T07:36:27.186Z,38.07
2018-05-03T07:37:07.702Z,38.36
2018-05-03T07:37:48.231Z,38.75
2018-05-03T07:38:28.770Z,39.04
2018-05-03T07:39:09.345Z,38.85
2018-05-03T07:39:49.824Z,39.04
2018-05-03T07:40:30.344Z,38.75
2018-05-03T07:41:10.883Z,38.38
2018-05-03T07:41:51.418Z,37.89
2018-05-03T07:42:31.950Z,38.18
2018-05-03T07:43:12.483Z,38.09
2018-05-03T07:43:53.038Z,38.1
2018-05-03T07:44:33.533Z,38.1
2018-05-03T07:45:14.066Z,37.91
2018-05-03T07:45:54.605Z,37.54
2018-05-03T07:46:35.136Z,36.15
2018-05-03T07:47:15.663Z,34.81
2018-05-03T07:47:56.187Z,34.72
2018-05-03T07:48:36.805Z,34.91
2018-05-03T07:49:17.960Z,35.4
2018-05-03T07:49:57.770Z,35.69
2018-05-03T07:50:38.308Z,35.79
2018-05-03T07:51:18.841Z,36.16
2018-05-03T07:51:59.376Z,36.16
2018-05-03T07:52:39.909Z,36.46
2018-05-03T07:53:20.442Z,36.63
2018-05-03T07:54:00.980Z,37.22
2018-05-03T07:54:41.517Z,37.6
2018-05-03T07:55:22.049Z,38.06
2018-05-03T07:56:02.588Z,38.04
2018-05-03T07:56:43.143Z,38.42
2018-05-03T07:57:23.663Z,38.79
2018-05-03T07:58:04.176Z,39.37
2018-05-03T07:58:45.095Z,40.03
2018-05-03T07:59:25.631Z,40.13
2018-05-03T08:00:06.164Z,40.5
2018-05-03T08:00:46.696Z,40.5
2018-05-03T08:01:27.596Z,40.48
2018-05-03T08:02:08.191Z,40.48
2018-05-03T08:02:49.901Z,40.31
2018-05-03T08:03:30.428Z,40.01
2018-05-03T08:04:10.963Z,40.01
2018-05-03T08:04:51.487Z,39.45
2018-05-03T08:05:32.017Z,39.26
2018-05-03T08:06:12.677Z,38.96
2018-05-03T08:06:53.081Z,38.87
2018-05-03T08:07:33.613Z,38.87
2018-05-03T08:08:14.975Z,38.87
2018-05-03T08:08:54.676Z,38.87
2018-05-03T08:09:35.217Z,38.87
2018-05-03T08:10:15.754Z,38.96
2018-05-03T08:10:56.286Z,38.3
2018-05-03T08:11:36.810Z,38.01
2018-05-03T08:12:17.338Z,38.22
2018-05-03T08:12:57.867Z,37.83
2018-05-03T08:13:38.407Z,37.75
2018-05-03T08:14:18.941Z,37.73
2018-05-03T08:14:59.477Z,37.83
2018-05-03T08:15:40.009Z,38.02
2018-05-03T08:16:20.540Z,37.83
2018-05-03T08:17:01.101Z,37.93
2018-05-03T08:17:41.622Z,38.12
2018-05-03T08:18:22.150Z,37.93
2018-05-03T08:19:02.684Z,38.22
2018-05-03T08:19:43.224Z,37.93
2018-05-03T08:20:23.747Z,37.93
2018-05-03T08:21:04.272Z,37.95
2018-05-03T08:21:45.750Z,37.67
2018-05-03T08:22:26.332Z,37.01
2018-05-03T08:23:06.818Z,36.16
2018-05-03T08:23:47.351Z,35.99
2018-05-03T08:24:27.894Z,34.65
2018-05-03T08:25:08.409Z,34.18
2018-05-03T08:25:48.952Z,33.72
2018-05-03T08:26:29.977Z,32.95
2018-05-03T08:27:10.010Z,32.21
2018-05-03T08:27:50.541Z,31.74
2018-05-03T08:28:31.083Z,31.18
2018-05-03T08:29:11.611Z,30.72
2018-05-03T08:29:52.145Z,29.66
2018-05-03T08:30:32.672Z,29.2
2018-05-03T08:31:13.213Z,28.74
2018-05-03T08:31:54.531Z,27.89
2018-05-03T08:32:34.264Z,26.48
2018-05-03T08:33:14.799Z,24.75
2018-05-03T08:33:55.331Z,22.84
2018-05-03T08:34:35.868Z,22.27
2018-05-03T08:35:16.392Z,21.89
2018-05-03T08:35:56.926Z,22.39
2018-05-03T08:36:37.464Z,22.02
2018-05-03T08:37:17.998Z,22.42
2018-05-03T08:37:58.531Z,22.72
2018-05-03T08:38:39.074Z,23.21
2018-05-03T08:39:19.604Z,23
2018-05-03T08:40:00.137Z,23.03
2018-05-03T08:40:40.675Z,22.65
2018-05-03T08:41:21.229Z,22.96
2018-05-03T08:42:01.757Z,21.61
2018-05-03T08:42:42.292Z,20.16
2018-05-03T08:43:22.824Z,19.52
2018-05-03T08:44:03.444Z,18.24
2018-05-03T08:44:43.875Z,18.06
2018-05-03T08:45:24.421Z,17.77